createdAt,value
2023-03-02T00:00:01.224Z,79
2023-03-02T00:04:02.615Z,79
2023-03-02T00:08:02.058Z,79
2023-03-02T00:12:02.268Z,79
2023-03-02T00:16:01.289Z,80
2023-03-02T00:20:11.242Z,80
2023-03-02T00:24:01.199Z,80
2023-03-02T00:28:01.229Z,80
2023-03-02T00:32:02.969Z,80
2023-03-02T00:36:01.572Z,81
2023-03-02T00:40:01.239Z,81
2023-03-02T00:44:01.348Z,81
2023-03-02T00:48:01.221Z,81
2023-03-02T00:52:01.168Z,81
2023-03-02T00:56:01.472Z,82
2023-03-02T01:00:01.279Z,82
2023-03-02T01:04:01.080Z,82
2023-03-02T01:08:01.199Z,82
2023-03-02T01:12:01.405Z,82
2023-03-02T01:16:01.712Z,82
2023-03-02T01:20:01.116Z,82
2023-03-02T01:24:01.420Z,83
2023-03-02T01:28:01.149Z,83
2023-03-02T01:32:02.125Z,83
2023-03-02T01:36:01.543Z,83
2023-03-02T01:40:04.878Z,83
2023-03-02T01:44:01.158Z,83
2023-03-02T01:48:01.985Z,83
2023-03-02T01:52:01.129Z,83
2023-03-02T01:56:02.510Z,83
2023-03-02T02:00:07.595Z,83
2023-03-02T02:04:02.069Z,84
2023-03-02T02:08:01.289Z,84
2023-03-02T02:12:01.348Z,84
2023-03-02T02:16:01.184Z,85
2023-03-02T02:20:09.453Z,85
2023-03-02T02:24:05.831Z,85
2023-03-02T02:28:02.650Z,85
2023-03-02T02:32:03.182Z,85
2023-03-02T02:36:03.073Z,85
2023-03-02T02:40:06.296Z,85
2023-03-02T02:44:01.225Z,85
2023-03-02T02:48:01.240Z,85
2023-03-02T02:52:02.187Z,85
2023-03-02T02:56:02.215Z,85
2023-03-02T03:00:01.495Z,85
2023-03-02T03:04:03.061Z,85
2023-03-02T03:08:09.582Z,85
2023-03-02T03:12:02.835Z,85
2023-03-02T03:16:02.003Z,85
2023-03-02T03:20:05.846Z,85
2023-03-02T03:24:01.435Z,85
2023-03-02T03:28:03.061Z,85
2023-03-02T03:32:02.335Z,85
2023-03-02T03:36:01.349Z,86
2023-03-02T03:40:01.147Z,86
2023-03-02T03:44:01.217Z,86
2023-03-02T03:48:01.276Z,86
2023-03-02T03:52:01.583Z,86
2023-03-02T03:56:02.955Z,86
2023-03-02T04:00:01.200Z,86
2023-03-02T04:04:01.414Z,87
2023-03-02T04:08:01.227Z,87
2023-03-02T04:12:01.242Z,87
2023-03-02T04:16:01.169Z,87
2023-03-02T04:20:01.438Z,87
2023-03-02T04:24:01.194Z,87
2023-03-02T04:28:01.466Z,87
2023-03-02T04:32:01.327Z,87
2023-03-02T04:36:01.581Z,87
2023-03-02T04:40:01.218Z,87
2023-03-02T04:44:01.390Z,87
2023-03-02T04:48:01.142Z,87
2023-03-02T04:52:01.510Z,87
2023-03-02T04:56:01.110Z,86
2023-03-02T05:00:01.350Z,86
2023-03-02T05:04:03.219Z,87
2023-03-02T05:08:01.373Z,87
2023-03-02T05:12:01.653Z,87
2023-03-02T05:16:01.834Z,87
2023-03-02T05:20:01.151Z,87
2023-03-02T05:24:02.366Z,87
2023-03-02T05:28:01.584Z,87
2023-03-02T05:32:01.586Z,87
2023-03-02T05:36:01.291Z,87
2023-03-02T05:40:01.234Z,87
2023-03-02T05:44:01.150Z,87
2023-03-02T05:48:01.561Z,87
2023-03-02T05:52:01.243Z,87
2023-03-02T05:56:01.230Z,87
2023-03-02T06:00:01.343Z,87
2023-03-02T06:04:01.338Z,87
2023-03-02T06:08:01.197Z,87
2023-03-02T06:12:01.447Z,87
2023-03-02T06:16:01.516Z,87
2023-03-02T06:20:01.585Z,87
2023-03-02T06:24:01.156Z,87
2023-03-02T06:28:01.214Z,87
2023-03-02T06:32:02.159Z,87
2023-03-02T06:36:01.620Z,87
2023-03-02T06:40:01.160Z,87
2023-03-02T06:44:01.228Z,87
2023-03-02T06:48:01.679Z,87
2023-03-02T06:52:01.168Z,87
2023-03-02T06:56:01.106Z,87
2023-03-02T07:00:02.628Z,87
2023-03-02T07:04:01.775Z,87
2023-03-02T07:08:01.329Z,87
2023-03-02T07:12:01.345Z,87
2023-03-02T07:16:04.655Z,88
2023-03-02T07:20:01.116Z,88
2023-03-02T07:24:01.329Z,88
2023-03-02T07:28:01.096Z,88
2023-03-02T07:32:01.555Z,88
2023-03-02T07:36:01.661Z,88
2023-03-02T07:40:01.290Z,88
2023-03-02T07:44:01.069Z,89
2023-03-02T07:48:01.389Z,89
2023-03-02T07:52:01.242Z,89
2023-03-02T07:56:04.858Z,89
2023-03-02T08:00:01.205Z,89
2023-03-02T08:04:01.221Z,90
2023-03-02T08:08:01.176Z,90
2023-03-02T08:12:01.353Z,90
2023-03-02T08:16:02.997Z,90
2023-03-02T08:20:01.299Z,90
2023-03-02T08:24:01.353Z,91
2023-03-02T08:28:01.192Z,91
2023-03-02T08:32:01.567Z,91
2023-03-02T08:36:02.850Z,91
2023-03-02T08:40:01.113Z,91
2023-03-02T08:44:01.252Z,90
2023-03-02T08:48:01.158Z,90
2023-03-02T08:52:01.247Z,90
2023-03-02T08:56:01.596Z,90
2023-03-02T09:00:01.603Z,90
2023-03-02T09:04:02.046Z,88
2023-03-02T09:08:01.342Z,88
2023-03-02T09:12:01.478Z,88
2023-03-02T09:16:01.453Z,84
2023-03-02T09:20:01.333Z,84
2023-03-02T09:24:01.216Z,80
2023-03-02T09:28:01.329Z,80
2023-03-02T09:32:01.465Z,80
2023-03-02T09:36:05.224Z,77
2023-03-02T09:40:01.134Z,77
2023-03-02T09:44:06.076Z,74
2023-03-02T09:48:09.155Z,74
2023-03-02T09:52:07.383Z,74
2023-03-02T09:56:01.807Z,72
2023-03-02T10:00:19.371Z,72
2023-03-02T10:04:07.565Z,69
2023-03-02T10:08:01.216Z,69
2023-03-02T10:12:07.694Z,68
2023-03-02T10:16:07.295Z,68
2023-03-02T10:20:03.239Z,68
2023-03-02T10:24:04.881Z,67
2023-03-02T10:28:02.601Z,67
2023-03-02T10:32:09.914Z,66
2023-03-02T10:36:04.883Z,66
2023-03-02T10:40:01.227Z,66
2023-03-02T10:44:03.858Z,66
2023-03-02T10:48:01.802Z,66
2023-03-02T10:52:02.527Z,66
2023-03-02T10:56:04.495Z,63
2023-03-02T11:00:02.725Z,63
2023-03-02T11:04:01.472Z,60
2023-03-02T11:08:02.216Z,60
2023-03-02T11:12:01.536Z,60
2023-03-02T11:16:02.590Z,60
2023-03-02T11:20:02.407Z,60
2023-03-02T11:24:05.794Z,57
2023-03-02T11:28:04.826Z,57
2023-03-02T11:32:05.446Z,57
2023-03-02T11:36:05.548Z,58
2023-03-02T11:40:04.476Z,58
2023-03-02T11:44:08.821Z,58
2023-03-02T11:48:04.912Z,58
2023-03-02T11:52:01.467Z,58
2023-03-02T11:56:01.181Z,58
2023-03-02T12:00:02.855Z,58
2023-03-02T12:04:09.962Z,57
2023-03-02T12:08:02.421Z,57
2023-03-02T12:12:10.971Z,55
2023-03-02T12:16:01.763Z,55
2023-03-02T12:20:10.840Z,55
2023-03-02T12:24:03.081Z,53
2023-03-02T12:28:02.489Z,53
2023-03-02T12:32:09.584Z,53
2023-03-02T12:36:03.656Z,53
2023-03-02T12:40:10.939Z,53
2023-03-02T12:44:06.519Z,53
2023-03-02T12:48:04.752Z,53
2023-03-02T12:52:02.427Z,53
2023-03-02T12:56:01.228Z,52
2023-03-02T13:00:02.277Z,52
2023-03-02T13:04:01.269Z,52
2023-03-02T13:08:03.428Z,52
2023-03-02T13:12:01.284Z,52
2023-03-02T13:16:02.126Z,52
2023-03-02T13:20:02.751Z,52
2023-03-02T13:24:01.607Z,50
2023-03-02T13:28:06.801Z,50
2023-03-02T13:32:11.003Z,47
2023-03-02T13:36:01.741Z,47
2023-03-02T13:40:03.975Z,47
2023-03-02T13:44:11.598Z,47
2023-03-02T13:48:10.928Z,47
2023-03-02T13:52:02.733Z,47
2023-03-02T13:56:01.948Z,49
2023-03-02T14:00:03.418Z,49
2023-03-02T14:04:02.059Z,50
2023-03-02T14:08:02.466Z,50
2023-03-02T14:12:01.257Z,50
2023-03-02T14:16:01.473Z,50
2023-03-02T14:20:01.081Z,50
2023-03-02T14:24:01.412Z,49
2023-03-02T14:28:02.554Z,49
2023-03-02T14:32:04.003Z,49
2023-03-02T14:36:01.856Z,48
2023-03-02T14:40:01.290Z,48
2023-03-02T14:44:01.075Z,46
2023-03-02T14:48:01.414Z,46
2023-03-02T14:52:03.185Z,46
2023-03-02T14:56:01.264Z,47
2023-03-02T15:00:01.460Z,47
2023-03-02T15:04:01.248Z,48
2023-03-02T15:08:01.080Z,48
2023-03-02T15:12:01.375Z,48
2023-03-02T15:16:01.222Z,48
2023-03-02T15:20:01.200Z,48
2023-03-02T15:24:01.351Z,49
2023-03-02T15:28:01.174Z,49
2023-03-02T15:32:01.493Z,49
2023-03-02T15:36:01.674Z,48
2023-03-02T15:40:01.350Z,48
2023-03-02T15:44:01.053Z,49
2023-03-02T15:48:01.333Z,49
2023-03-02T15:52:01.341Z,49
2023-03-02T15:56:03.084Z,49
2023-03-02T16:00:01.865Z,49
2023-03-02T16:04:01.183Z,52
2023-03-02T16:08:01.099Z,52
2023-03-02T16:12:01.294Z,52
2023-03-02T16:16:01.640Z,53
2023-03-02T16:20:01.145Z,53
2023-03-02T16:24:03.706Z,53
2023-03-02T16:28:01.404Z,53
2023-03-02T16:32:01.410Z,53
2023-03-02T16:36:01.319Z,53
2023-03-02T16:40:01.188Z,53
2023-03-02T16:44:01.481Z,53
2023-03-02T16:48:01.312Z,53
2023-03-02T16:52:01.321Z,53
2023-03-02T16:56:01.261Z,58
2023-03-02T17:00:01.442Z,58
2023-03-02T17:04:01.383Z,58
2023-03-02T17:08:01.936Z,58
2023-03-02T17:12:01.476Z,58
2023-03-02T17:16:01.887Z,59
2023-03-02T17:20:01.151Z,59
2023-03-02T17:24:01.778Z,60
2023-03-02T17:28:01.169Z,60
2023-03-02T17:32:01.430Z,60
2023-03-02T17:36:02.203Z,61
2023-03-02T17:40:01.303Z,61
2023-03-02T17:44:01.748Z,61
2023-03-02T17:48:01.499Z,61
2023-03-02T17:52:01.155Z,61
2023-03-02T17:56:01.223Z,62
2023-03-02T18:00:02.251Z,62
2023-03-02T18:04:01.466Z,64
2023-03-02T18:08:01.077Z,64
2023-03-02T18:12:02.517Z,64
2023-03-02T18:16:01.326Z,65
2023-03-02T18:20:01.127Z,65
2023-03-02T18:24:01.739Z,66
2023-03-02T18:28:01.373Z,66
2023-03-02T18:32:01.152Z,66
2023-03-02T18:36:04.599Z,67
2023-03-02T18:40:01.864Z,67
2023-03-02T18:44:01.748Z,68
2023-03-02T18:48:01.456Z,68
2023-03-02T18:52:04.896Z,68
2023-03-02T18:56:01.073Z,68
2023-03-02T19:00:01.341Z,68
2023-03-02T19:04:02.704Z,68
2023-03-02T19:08:01.858Z,68
2023-03-02T19:12:01.586Z,68
2023-03-02T19:16:01.716Z,69
2023-03-02T19:20:01.603Z,69
2023-03-02T19:24:01.392Z,69
2023-03-02T19:28:01.317Z,69
2023-03-02T19:32:01.550Z,69
2023-03-02T19:36:01.346Z,69
2023-03-02T19:40:01.280Z,69
2023-03-02T19:44:01.229Z,69
2023-03-02T19:48:02.494Z,69
2023-03-02T19:52:01.617Z,69
2023-03-02T19:56:02.096Z,69
2023-03-02T20:00:01.334Z,69
2023-03-02T20:04:01.308Z,70
2023-03-02T20:08:01.170Z,70
2023-03-02T20:12:01.729Z,70
2023-03-02T20:16:01.210Z,71
2023-03-02T20:20:02.726Z,71
2023-03-02T20:24:01.265Z,71
2023-03-02T20:28:04.703Z,71
2023-03-02T20:32:03.041Z,71
2023-03-02T20:36:02.267Z,71
2023-03-02T20:40:01.312Z,71
2023-03-02T20:44:01.149Z,72
2023-03-02T20:48:02.311Z,72
2023-03-02T20:52:01.580Z,72
2023-03-02T20:56:01.178Z,73
2023-03-02T21:00:01.782Z,73
2023-03-02T21:04:01.421Z,73
2023-03-02T21:08:01.870Z,73
2023-03-02T21:12:01.691Z,73
2023-03-02T21:16:01.327Z,74
2023-03-02T21:20:01.727Z,74
2023-03-02T21:24:01.604Z,74
2023-03-02T21:28:01.246Z,74
2023-03-02T21:32:02.559Z,74
2023-03-02T21:36:01.311Z,74
2023-03-02T21:40:01.245Z,74
2023-03-02T21:44:01.348Z,75
2023-03-02T21:48:01.348Z,75
2023-03-02T21:52:01.218Z,75
2023-03-02T21:56:01.533Z,75
2023-03-02T22:00:03.570Z,75
2023-03-02T22:04:01.381Z,75
2023-03-02T22:08:01.255Z,75
2023-03-02T22:12:05.757Z,75
2023-03-02T22:16:11.031Z,75
2023-03-02T22:20:01.219Z,75
2023-03-02T22:24:11.986Z,76
2023-03-02T22:28:01.104Z,76
2023-03-02T22:32:11.104Z,75
2023-03-02T22:36:03.681Z,75
2023-03-02T22:40:05.996Z,75
2023-03-02T22:44:02.876Z,74
2023-03-02T22:48:01.395Z,74
2023-03-02T22:52:02.485Z,74
2023-03-02T22:56:02.068Z,75
2023-03-02T23:00:10.874Z,75
2023-03-02T23:04:10.975Z,75
2023-03-02T23:08:10.999Z,75
2023-03-02T23:12:04.080Z,75
2023-03-02T23:16:02.153Z,75
2023-03-02T23:20:02.065Z,75
2023-03-02T23:24:01.788Z,75
2023-03-02T23:28:01.168Z,75
2023-03-02T23:32:01.568Z,75
2023-03-02T23:36:01.261Z,75
2023-03-02T23:40:01.167Z,75
2023-03-02T23:44:01.398Z,75
2023-03-02T23:48:01.152Z,75
2023-03-02T23:52:01.442Z,75
2023-03-02T23:56:01.488Z,76
